Time;durP1;ratioP1;P1;durP2;ratioP2;P2;SDS_P1;SDS_P2;PMS_P1;PMS_P2;Temp;Humidity;BMP_temperature;BMP_pressure;BME280_temperature;BME280_humidity;BME280_pressure;Samples;Min_cycle;Max_cycle;Signal;HPM_P1;HPM_P2
2022/05/25 00:00:42;;;;;;;;;1.50;1.00;;;;;;;;5127016;27;62087;-78
2022/05/25 00:03:07;;;;;;;;;0.25;0.25;;;;;;;;5125942;27;62698;-78
2022/05/25 00:05:33;;;;;;;;;1.00;1.00;;;;;;;;5125043;27;62109;-78
2022/05/25 00:07:58;;;;;;;;;4.50;1.50;;;;;;;;5126459;27;61735;-78
2022/05/25 00:10:24;;;;;;;;;2.50;1.25;;;;;;;;5126166;27;61759;-78
2022/05/25 00:12:49;;;;;;;;;3.00;2.00;;;;;;;;5125462;27;61831;-78
2022/05/25 00:15:15;;;;;;;;;1.00;1.00;;;;;;;;5126262;27;61908;-78
2022/05/25 00:17:41;;;;;;;;;2.25;2.00;;;;;;;;5126465;27;61756;-78
2022/05/25 00:20:07;;;;;;;;;3.00;1.75;;;;;;;;5126327;27;61780;-78
2022/05/25 00:22:51;;;;;;;;;1.25;1.25;;;;;;;;5124092;27;63597;-78
2022/05/25 00:25:18;;;;;;;;;0.00;0.00;;;;;;;;5125747;27;61810;-78
2022/05/25 00:27:44;;;;;;;;;1.00;1.00;;;;;;;;5125946;27;61704;-78
2022/05/25 00:30:10;;;;;;;;;1.25;0.00;;;;;;;;5126339;27;61924;-78
2022/05/25 00:32:35;;;;;;;;;1.00;0.50;;;;;;;;5125358;27;62884;-78
2022/05/25 00:35:01;;;;;;;;;0.25;0.25;;;;;;;;5124389;27;62067;-78
2022/05/25 00:37:26;;;;;;;;;4.00;1.00;;;;;;;;5123532;27;62024;-78
2022/05/25 00:39:51;;;;;;;;;1.25;1.00;;;;;;;;5125843;27;61959;-78
2022/05/25 00:42:16;;;;;;;;;0.00;0.00;;;;;;;;5125305;27;62737;-78
2022/05/25 00:44:42;;;;;;;;;0.75;0.75;;;;;;;;5125808;27;61748;-78
2022/05/25 00:47:08;;;;;;;;;0.25;0.25;;;;;;;;5126195;27;61873;-78
2022/05/25 00:49:35;;;;;;;;;0.25;0.25;;;;;;;;5124656;27;61881;-78
2022/05/25 00:52:03;;;;;;;;;0.00;0.00;;;;;;;;5125107;27;61754;-78
2022/05/25 00:54:33;;;;;;;;;0.00;0.00;;;;;;;;5124820;27;61811;-78
2022/05/25 00:57:02;;;;;;;;;0.00;0.00;;;;;;;;5124326;27;61913;-78
2022/05/25 00:59:31;;;;;;;;;0.00;0.00;;;;;;;;5125899;27;61686;-78
2022/05/25 01:01:56;;;;;;;;;0.00;0.00;;;;;;;;5123847;27;65064;-78
2022/05/25 01:04:22;;;;;;;;;0.00;0.00;;;;;;;;5125328;27;61783;-78
2022/05/25 01:07:06;;;;;;;;;0.00;0.00;;;;;;;;5124255;27;61768;-78
2022/05/25 01:09:50;;;;;;;;;0.75;0.00;;;;;;;;5125637;27;61775;-78
2022/05/25 01:12:33;;;;;;;;;0.50;0.00;;;;;;;;5124695;27;61786;-78
2022/05/25 01:15:07;;;;;;;;;3.00;1.00;;;;;;;;5124061;27;62346;-78
2022/05/25 01:17:47;;;;;;;;;0.00;0.00;;;;;;;;5123934;27;61894;-78
2022/05/25 01:20:25;;;;;;;;;1.00;1.00;;;;;;;;5124480;27;62176;-78
2022/05/25 01:22:53;;;;;;;;;0.00;0.00;;;;;;;;5124853;27;61812;-78
2022/05/25 01:25:18;;;;;;;;;0.00;0.00;;;;;;;;5123203;27;61775;-78
2022/05/25 01:27:45;;;;;;;;;0.00;0.00;;;;;;;;5125245;27;62021;-78
2022/05/25 01:30:16;;;;;;;;;2.00;0.00;;;;;;;;5125538;27;61707;-78
2022/05/25 01:33:00;;;;;;;;;1.00;0.00;;;;;;;;5124482;27;61791;-78
2022/05/25 01:35:42;;;;;;;;;0.00;0.00;;;;;;;;5123875;27;61963;-78
2022/05/25 01:38:15;;;;;;;;;0.00;0.00;;;;;;;;5125221;27;61839;-78
2022/05/25 01:40:52;;;;;;;;;0.00;0.00;;;;;;;;5123386;27;61696;-78
2022/05/25 01:43:20;;;;;;;;;1.00;1.00;;;;;;;;5123102;27;63896;-78
2022/05/25 01:45:50;;;;;;;;;1.00;1.00;;;;;;;;5123280;27;61801;-78
2022/05/25 01:48:17;;;;;;;;;0.00;0.00;;;;;;;;5125013;27;61714;-78
2022/05/25 01:50:49;;;;;;;;;0.00;0.00;;;;;;;;5124921;27;61955;-78
2022/05/25 01:53:15;;;;;;;;;1.75;0.75;;;;;;;;5123772;27;61921;-78
2022/05/25 01:55:47;;;;;;;;;0.75;0.00;;;;;;;;5124183;27;62110;-78
2022/05/25 01:58:15;;;;;;;;;3.00;2.00;;;;;;;;5125050;27;61734;-78
2022/05/25 02:00:42;;;;;;;;;1.00;0.25;;;;;;;;5124806;27;61712;-78
2022/05/25 02:06:01;;;;;;;;;0.00;0.00;;;;;;;;5124533;27;61764;-78
2022/05/25 02:08:35;;;;;;;;;1.25;1.25;;;;;;;;5123889;27;62114;-78
2022/05/25 02:11:07;;;;;;;;;3.00;1.25;;;;;;;;5124628;27;61831;-78
2022/05/25 02:13:39;;;;;;;;;1.00;1.00;;;;;;;;5123886;27;61805;-78
2022/05/25 02:16:04;;;;;;;;;1.25;1.25;;;;;;;;5122889;27;61850;-77
2022/05/25 02:18:41;;;;;;;;;1.00;1.00;;;;;;;;5124431;27;61911;-77
2022/05/25 02:21:12;;;;;;;;;2.25;2.00;;;;;;;;5123404;27;62125;-77
2022/05/25 02:23:50;;;;;;;;;3.00;1.00;;;;;;;;5121892;27;63878;-77
2022/05/25 02:26:27;;;;;;;;;2.00;0.75;;;;;;;;5124248;27;61854;-77
2022/05/25 02:29:04;;;;;;;;;1.00;1.00;;;;;;;;5122895;27;62106;-77
2022/05/25 02:31:32;;;;;;;;;0.00;0.00;;;;;;;;5124544;27;62091;-77
2022/05/25 02:34:00;;;;;;;;;0.00;0.00;;;;;;;;5123244;27;61848;-77
2022/05/25 02:36:26;;;;;;;;;1.50;0.00;;;;;;;;5124117;27;62144;-77
2022/05/25 02:38:52;;;;;;;;;2.25;0.00;;;;;;;;5123193;27;61918;-77
2022/05/25 02:41:29;;;;;;;;;1.50;0.00;;;;;;;;5122693;27;62414;-77
2022/05/25 02:43:55;;;;;;;;;0.00;0.00;;;;;;;;5121936;27;63793;-77
2022/05/25 02:46:20;;;;;;;;;0.00;0.00;;;;;;;;5124007;27;61911;-77
2022/05/25 02:48:45;;;;;;;;;0.00;0.00;;;;;;;;5122824;27;61882;-77
2022/05/25 02:51:10;;;;;;;;;0.00;0.00;;;;;;;;5122707;27;61936;-77
2022/05/25 02:53:36;;;;;;;;;1.00;1.00;;;;;;;;5122423;27;62552;-77
2022/05/25 02:56:02;;;;;;;;;0.00;0.00;;;;;;;;5123740;27;61918;-77
2022/05/25 02:58:28;;;;;;;;;0.00;0.00;;;;;;;;5123762;27;62302;-77
2022/05/25 03:00:53;;;;;;;;;0.25;0.25;;;;;;;;5121877;27;61905;-77
2022/05/25 03:03:19;;;;;;;;;0.25;0.25;;;;;;;;5123243;27;61776;-77
2022/05/25 03:05:44;;;;;;;;;1.00;1.00;;;;;;;;5123518;27;61851;-77
2022/05/25 03:08:09;;;;;;;;;2.75;1.00;;;;;;;;5122008;27;61986;-77
2022/05/25 03:10:35;;;;;;;;;1.50;1.00;;;;;;;;5122206;27;62230;-77
2022/05/25 03:13:02;;;;;;;;;1.00;1.00;;;;;;;;5122646;27;62011;-77
2022/05/25 03:15:27;;;;;;;;;1.00;1.00;;;;;;;;5123676;27;62002;-77
2022/05/25 03:17:52;;;;;;;;;3.00;2.00;;;;;;;;5122136;27;61787;-77
2022/05/25 03:20:18;;;;;;;;;2.25;2.00;;;;;;;;5122474;27;61654;-77
2022/05/25 03:22:44;;;;;;;;;3.00;2.00;;;;;;;;5122789;27;62191;-77
2022/05/25 03:25:10;;;;;;;;;4.75;1.50;;;;;;;;5122996;27;62512;-77
2022/05/25 03:27:35;;;;;;;;;1.50;1.50;;;;;;;;5123589;27;61603;-77
2022/05/25 03:30:01;;;;;;;;;2.00;2.00;;;;;;;;5121940;27;62207;-77
2022/05/25 03:32:27;;;;;;;;;2.75;1.25;;;;;;;;5122995;27;63055;-77
2022/05/25 03:34:52;;;;;;;;;4.00;1.50;;;;;;;;5123121;27;62109;-77
2022/05/25 03:37:17;;;;;;;;;3.75;1.75;;;;;;;;5123059;27;61720;-77
2022/05/25 03:39:43;;;;;;;;;1.00;1.00;;;;;;;;5123214;27;61789;-77
2022/05/25 03:42:10;;;;;;;;;1.00;1.00;;;;;;;;5122747;27;62075;-77
2022/05/25 03:44:36;;;;;;;;;2.00;2.00;;;;;;;;5122939;27;62000;-77
2022/05/25 03:47:02;;;;;;;;;5.25;2.00;;;;;;;;5121618;27;61958;-77
2022/05/25 03:49:27;;;;;;;;;2.50;1.25;;;;;;;;5123560;27;61696;-77
2022/05/25 03:51:53;;;;;;;;;0.50;0.50;;;;;;;;5120936;27;63537;-77
2022/05/25 03:54:18;;;;;;;;;1.00;1.00;;;;;;;;5115902;27;62215;-77
2022/05/25 03:56:44;;;;;;;;;2.00;1.00;;;;;;;;5123187;27;61874;-77
2022/05/25 03:59:09;;;;;;;;;2.75;1.00;;;;;;;;5122899;27;61736;-77
2022/05/25 04:01:35;;;;;;;;;1.50;1.50;;;;;;;;5122320;27;62608;-77
2022/05/25 04:04:00;;;;;;;;;1.75;1.00;;;;;;;;5122883;27;61942;-77
2022/05/25 04:06:26;;;;;;;;;1.50;1.50;;;;;;;;5122495;27;62023;-77
2022/05/25 04:08:51;;;;;;;;;1.50;1.50;;;;;;;;5121358;27;62122;-77
2022/05/25 04:11:17;;;;;;;;;2.25;1.50;;;;;;;;5123081;27;62185;-77
2022/05/25 04:13:43;;;;;;;;;2.00;2.00;;;;;;;;5125453;27;62233;-77
2022/05/25 04:16:10;;;;;;;;;2.25;1.00;;;;;;;;5125733;27;61965;-77
2022/05/25 04:18:36;;;;;;;;;1.00;1.00;;;;;;;;5126540;27;61855;-77
2022/05/25 04:21:01;;;;;;;;;2.75;1.00;;;;;;;;5124084;27;63319;-77
2022/05/25 04:23:28;;;;;;;;;2.25;1.00;;;;;;;;5126026;27;62025;-77
2022/05/25 04:25:53;;;;;;;;;1.00;1.00;;;;;;;;5125085;27;61827;-77
2022/05/25 04:28:18;;;;;;;;;1.50;1.00;;;;;;;;5126208;27;61947;-77
2022/05/25 04:30:44;;;;;;;;;1.00;1.00;;;;;;;;5125630;27;61993;-77
2022/05/25 04:33:09;;;;;;;;;1.00;1.00;;;;;;;;5125947;27;61818;-77
2022/05/25 04:35:34;;;;;;;;;1.00;1.00;;;;;;;;5124618;27;61937;-77
2022/05/25 04:37:59;;;;;;;;;1.00;1.00;;;;;;;;5126052;27;61622;-77
2022/05/25 04:40:32;;;;;;;;;0.75;0.75;;;;;;;;5124985;27;62629;-77
2022/05/25 04:42:59;;;;;;;;;6.00;1.00;;;;;;;;5124402;27;61918;-77
2022/05/25 04:45:27;;;;;;;;;0.25;0.25;;;;;;;;5124016;27;61791;-78
2022/05/25 04:47:56;;;;;;;;;0.00;0.00;;;;;;;;5124632;27;62096;-76
2022/05/25 04:50:22;;;;;;;;;0.25;0.25;;;;;;;;5125042;27;62826;-78
2022/05/25 04:52:48;;;;;;;;;0.75;0.75;;;;;;;;5117946;27;61953;-77
2022/05/25 04:57:58;;;;;;;;;1.25;1.25;;;;;;;;5123464;27;61780;-78
2022/05/25 05:00:24;;;;;;;;;1.00;1.00;;;;;;;;5124698;27;61841;-78
2022/05/25 05:02:49;;;;;;;;;3.00;2.00;;;;;;;;5123831;27;61955;-78
2022/05/25 05:05:16;;;;;;;;;1.25;1.25;;;;;;;;5124522;27;62028;-77
2022/05/25 05:07:41;;;;;;;;;2.00;1.00;;;;;;;;5123134;27;62017;-78
2022/05/25 05:10:07;;;;;;;;;7.00;1.75;;;;;;;;5123665;27;62093;-79
2022/05/25 05:12:32;;;;;;;;;1.00;1.00;;;;;;;;5123887;27;62053;-79
2022/05/25 05:14:58;;;;;;;;;2.00;2.00;;;;;;;;5125142;27;61945;-78
2022/05/25 05:17:23;;;;;;;;;2.50;2.00;;;;;;;;5123186;27;62026;-77
2022/05/25 05:19:49;;;;;;;;;1.75;1.75;;;;;;;;5122609;27;65189;-77
2022/05/25 05:22:14;;;;;;;;;3.00;3.00;;;;;;;;5122106;27;61953;-78
2022/05/25 05:24:40;;;;;;;;;4.50;2.00;;;;;;;;5123502;27;61963;-76
2022/05/25 05:27:06;;;;;;;;;1.75;1.75;;;;;;;;5123511;27;61760;-76
2022/05/25 05:29:32;;;;;;;;;3.75;1.50;;;;;;;;5122364;27;63622;-76
2022/05/25 05:31:58;;;;;;;;;2.00;2.00;;;;;;;;5124351;27;61933;-77
2022/05/25 05:34:27;;;;;;;;;2.00;2.00;;;;;;;;5123320;27;62109;-76
2022/05/25 05:36:55;;;;;;;;;0.75;0.75;;;;;;;;5122572;27;61928;-77
2022/05/25 05:39:24;;;;;;;;;4.25;3.00;;;;;;;;5121427;27;63288;-77
2022/05/25 05:41:51;;;;;;;;;3.00;2.00;;;;;;;;5121546;27;61985;-80
2022/05/25 05:44:19;;;;;;;;;1.50;1.50;;;;;;;;5126582;27;61786;-80
2022/05/25 05:46:45;;;;;;;;;3.00;2.00;;;;;;;;5124877;27;61780;-79
2022/05/25 05:49:12;;;;;;;;;1.75;1.25;;;;;;;;5120727;27;61910;-77
2022/05/25 05:51:38;;;;;;;;;0.25;0.25;;;;;;;;5123567;27;61778;-79
2022/05/25 05:54:04;;;;;;;;;2.00;0.00;;;;;;;;5119269;27;62048;-79
2022/05/25 05:56:32;;;;;;;;;1.50;1.00;;;;;;;;5124114;27;62022;-80
2022/05/25 05:58:57;;;;;;;;;4.00;1.50;;;;;;;;5123998;27;62306;-80
2022/05/25 06:01:23;;;;;;;;;1.00;1.00;;;;;;;;5122969;27;62224;-80
2022/05/25 06:03:48;;;;;;;;;1.50;1.50;;;;;;;;5124501;27;61829;-79
2022/05/25 06:06:13;;;;;;;;;3.00;1.00;;;;;;;;5124224;27;61836;-80
2022/05/25 06:08:38;;;;;;;;;2.25;1.00;;;;;;;;5122975;27;62010;-80
2022/05/25 06:11:04;;;;;;;;;1.75;1.00;;;;;;;;5122049;27;62080;-80
2022/05/25 06:13:29;;;;;;;;;1.00;0.00;;;;;;;;5123506;27;61957;-80
2022/05/25 06:21:23;;;;;;;;;1.00;1.00;;;;;;;;5123923;27;62060;-80
2022/05/25 06:23:49;;;;;;;;;0.50;0.50;;;;;;;;5121892;27;61779;-80
2022/05/25 06:26:15;;;;;;;;;0.50;0.50;;;;;;;;5123350;27;62595;-80
2022/05/25 06:28:41;;;;;;;;;0.50;0.00;;;;;;;;5122210;27;62125;-80
2022/05/25 06:31:06;;;;;;;;;0.00;0.00;;;;;;;;5123239;27;61887;-80
2022/05/25 06:33:31;;;;;;;;;1.25;0.75;;;;;;;;5122175;27;61934;-79
2022/05/25 06:36:10;;;;;;;;;0.00;0.00;;;;;;;;5122779;27;61936;-80
2022/05/25 06:38:35;;;;;;;;;1.00;1.00;;;;;;;;5120401;27;64744;-81
2022/05/25 06:41:00;;;;;;;;;1.50;1.00;;;;;;;;5122486;27;61863;-80
2022/05/25 06:43:26;;;;;;;;;1.00;1.00;;;;;;;;5123077;27;61782;-80
2022/05/25 06:45:51;;;;;;;;;2.00;0.00;;;;;;;;5121283;27;62197;-80
2022/05/25 06:48:17;;;;;;;;;0.25;0.25;;;;;;;;5122327;27;61772;-80
2022/05/25 06:50:46;;;;;;;;;2.50;0.50;;;;;;;;5121102;27;62131;-80
2022/05/25 06:53:11;;;;;;;;;0.75;0.75;;;;;;;;5121006;27;61941;-80
2022/05/25 06:55:37;;;;;;;;;0.00;0.00;;;;;;;;5121754;27;61990;-80
2022/05/25 06:58:02;;;;;;;;;0.00;0.00;;;;;;;;5120745;27;63956;-80
2022/05/25 07:00:27;;;;;;;;;0.00;0.00;;;;;;;;5122826;27;61898;-87
2022/05/25 07:02:53;;;;;;;;;6.75;0.00;;;;;;;;5123180;27;61935;-86
2022/05/25 07:05:19;;;;;;;;;1.00;1.00;;;;;;;;5122965;27;61737;-80
2022/05/25 07:07:44;;;;;;;;;0.00;0.00;;;;;;;;5122061;27;61660;-80
2022/05/25 07:10:10;;;;;;;;;1.00;0.00;;;;;;;;5121575;27;61687;-79
2022/05/25 07:12:35;;;;;;;;;0.00;0.00;;;;;;;;5122580;27;62001;-80
2022/05/25 07:15:01;;;;;;;;;0.00;0.00;;;;;;;;5121348;27;61737;-78
2022/05/25 07:17:26;;;;;;;;;0.00;0.00;;;;;;;;5121403;27;64201;-78
2022/05/25 07:19:51;;;;;;;;;0.00;0.00;;;;;;;;5122293;27;62069;-78
2022/05/25 07:22:17;;;;;;;;;1.00;0.00;;;;;;;;5121190;27;61928;-78
2022/05/25 07:24:42;;;;;;;;;2.50;0.00;;;;;;;;5122266;27;61880;-78
2022/05/25 07:27:07;;;;;;;;;0.00;0.00;;;;;;;;5121315;27;61914;-78
2022/05/25 07:29:33;;;;;;;;;0.25;0.00;;;;;;;;5118456;27;61956;-78
2022/05/25 07:32:04;;;;;;;;;1.00;0.00;;;;;;;;5119454;27;61882;-78
2022/05/25 07:34:33;;;;;;;;;0.75;0.00;;;;;;;;5122165;27;61885;-78
2022/05/25 07:37:04;;;;;;;;;0.00;0.00;;;;;;;;5121773;27;62856;-78
2022/05/25 07:39:34;;;;;;;;;0.50;0.00;;;;;;;;5122419;27;61881;-78
2022/05/25 07:42:01;;;;;;;;;0.00;0.00;;;;;;;;5120991;27;61834;-78
2022/05/25 07:44:30;;;;;;;;;2.00;0.00;;;;;;;;5122850;27;61749;-78
2022/05/25 07:46:56;;;;;;;;;0.00;0.00;;;;;;;;5125240;27;61860;-78
2022/05/25 07:49:23;;;;;;;;;0.00;0.00;;;;;;;;5126683;27;61662;-78
2022/05/25 07:51:49;;;;;;;;;0.00;0.00;;;;;;;;5124595;27;61868;-80
2022/05/25 07:54:14;;;;;;;;;0.00;0.00;;;;;;;;5125877;27;61849;-80
2022/05/25 07:56:39;;;;;;;;;0.00;0.00;;;;;;;;5125683;27;62410;-80
2022/05/25 07:59:06;;;;;;;;;0.00;0.00;;;;;;;;5124968;27;61983;-81
2022/05/25 08:07:06;;;;;;;;;0.75;0.00;;;;;;;;5125218;27;62353;-77
2022/05/25 08:09:32;;;;;;;;;0.00;0.00;;;;;;;;5126100;27;61891;-76
2022/05/25 08:11:59;;;;;;;;;0.75;0.00;;;;;;;;5125932;27;62336;-77
2022/05/25 08:14:25;;;;;;;;;0.00;0.00;;;;;;;;5126205;27;61819;-77
2022/05/25 08:16:51;;;;;;;;;0.00;0.00;;;;;;;;5125113;27;62668;-77
2022/05/25 08:19:16;;;;;;;;;0.00;0.00;;;;;;;;5126004;27;62121;-77
2022/05/25 08:21:42;;;;;;;;;0.00;0.00;;;;;;;;5126069;27;62081;-77
2022/05/25 08:24:07;;;;;;;;;0.00;0.00;;;;;;;;5125858;27;61635;-77
2022/05/25 08:26:32;;;;;;;;;0.75;0.00;;;;;;;;5123630;27;63724;-77
2022/05/25 08:28:58;;;;;;;;;0.00;0.00;;;;;;;;5125761;27;62083;-77
2022/05/25 08:31:24;;;;;;;;;0.00;0.00;;;;;;;;5124306;27;61880;-76
2022/05/25 08:33:49;;;;;;;;;0.00;0.00;;;;;;;;5123102;27;61910;-84
2022/05/25 08:36:14;;;;;;;;;0.00;0.00;;;;;;;;5102957;27;64190;-82
2022/05/25 08:38:40;;;;;;;;;0.00;0.00;;;;;;;;5104740;27;61856;-79
2022/05/25 08:41:05;;;;;;;;;0.00;0.00;;;;;;;;5121197;27;61713;-80
2022/05/25 08:43:45;;;;;;;;;0.00;0.00;;;;;;;;5125504;27;61747;-82
2022/05/25 08:46:14;;;;;;;;;0.00;0.00;;;;;;;;5124698;27;61861;-82
2022/05/25 08:48:40;;;;;;;;;0.00;0.00;;;;;;;;5123917;27;61835;-84
2022/05/25 08:51:14;;;;;;;;;0.00;0.00;;;;;;;;5125383;27;62016;-86
2022/05/25 08:53:39;;;;;;;;;0.00;0.00;;;;;;;;5117446;27;61946;-84
2022/05/25 08:56:16;;;;;;;;;0.00;0.00;;;;;;;;5123915;27;61766;-76
2022/05/25 08:58:49;;;;;;;;;1.00;0.00;;;;;;;;5124150;27;61987;-75
2022/05/25 09:01:24;;;;;;;;;0.50;0.00;;;;;;;;5125096;27;62042;-76
2022/05/25 09:04:12;;;;;;;;;0.50;0.00;;;;;;;;5114669;27;61976;-76
2022/05/25 09:06:44;;;;;;;;;0.00;0.00;;;;;;;;5099250;27;63532;-76
2022/05/25 09:09:12;;;;;;;;;0.00;0.00;;;;;;;;5113656;27;61882;-77
2022/05/25 09:11:48;;;;;;;;;0.00;0.00;;;;;;;;5123422;27;61899;-76
2022/05/25 09:14:13;;;;;;;;;0.00;0.00;;;;;;;;5123256;27;61928;-76
2022/05/25 09:16:39;;;;;;;;;1.00;0.00;;;;;;;;5124066;27;61970;-76
2022/05/25 09:19:05;;;;;;;;;1.25;0.25;;;;;;;;5124446;27;61831;-76
2022/05/25 09:21:33;;;;;;;;;2.00;0.00;;;;;;;;5124648;27;61815;-77
2022/05/25 09:24:00;;;;;;;;;0.00;0.00;;;;;;;;5124317;27;61956;-77
2022/05/25 09:26:26;;;;;;;;;0.00;0.00;;;;;;;;5123927;27;61940;-77
2022/05/25 09:28:54;;;;;;;;;0.00;0.00;;;;;;;;5124874;27;61815;-76
2022/05/25 09:31:23;;;;;;;;;0.00;0.00;;;;;;;;5124404;27;61973;-77
2022/05/25 09:33:56;;;;;;;;;0.75;0.00;;;;;;;;5124752;27;62045;-77
2022/05/25 09:36:25;;;;;;;;;0.00;0.00;;;;;;;;5122115;27;64936;-77
2022/05/25 09:39:13;;;;;;;;;0.00;0.00;;;;;;;;5122376;27;61765;-77
2022/05/25 09:41:41;;;;;;;;;0.00;0.00;;;;;;;;5122826;27;62664;-77
2022/05/25 09:44:06;;;;;;;;;0.00;0.00;;;;;;;;5124553;27;62071;-77
2022/05/25 09:46:36;;;;;;;;;0.00;0.00;;;;;;;;5122404;27;64227;-77
2022/05/25 09:49:03;;;;;;;;;0.00;0.00;;;;;;;;5124366;27;61754;-77
2022/05/25 09:51:51;;;;;;;;;0.00;0.00;;;;;;;;5124351;27;61736;-77
2022/05/25 09:54:25;;;;;;;;;0.00;0.00;;;;;;;;5117159;27;62005;-76
2022/05/25 09:56:53;;;;;;;;;0.25;0.25;;;;;;;;5123329;27;62902;-77
2022/05/25 09:59:25;;;;;;;;;0.00;0.00;;;;;;;;5123709;27;61726;-77
2022/05/25 10:01:52;;;;;;;;;0.00;0.00;;;;;;;;5123396;27;61872;-76
2022/05/25 10:04:33;;;;;;;;;0.00;0.00;;;;;;;;5123187;27;62084;-77
2022/05/25 10:06:59;;;;;;;;;0.00;0.00;;;;;;;;5122889;27;62186;-77
2022/05/25 10:09:26;;;;;;;;;0.00;0.00;;;;;;;;5122910;27;62054;-77
2022/05/25 10:11:52;;;;;;;;;0.00;0.00;;;;;;;;5123113;27;61984;-76
2022/05/25 10:14:17;;;;;;;;;0.00;0.00;;;;;;;;5121441;27;61810;-77
2022/05/25 10:16:43;;;;;;;;;0.00;0.00;;;;;;;;5124365;27;61693;-73
2022/05/25 10:19:13;;;;;;;;;0.00;0.00;;;;;;;;5122053;27;61867;-76
2022/05/25 10:21:39;;;;;;;;;1.00;0.00;;;;;;;;5122752;27;62047;-77
2022/05/25 10:24:16;;;;;;;;;1.00;0.00;;;;;;;;5122111;27;61810;-77
2022/05/25 10:26:47;;;;;;;;;0.00;0.00;;;;;;;;5119829;27;64421;-77
2022/05/25 10:36:45;;;;;;;;;0.25;0.00;;;;;;;;5122489;27;62033;-77
2022/05/25 10:37:53;;;;;;;;;0.00;0.00;;;;;;;;5121906;27;62186;-77
2022/05/25 10:40:21;;;;;;;;;0.00;0.00;;;;;;;;5122528;27;61794;-77
2022/05/25 10:42:46;;;;;;;;;1.00;0.00;;;;;;;;5102997;27;61670;-77
2022/05/25 10:45:14;;;;;;;;;1.00;0.00;;;;;;;;5102770;27;61820;-77
2022/05/25 10:47:49;;;;;;;;;0.00;0.00;;;;;;;;5100374;27;65277;-76
2022/05/25 10:50:35;;;;;;;;;4.00;0.00;;;;;;;;5101674;27;61931;-77
2022/05/25 10:53:19;;;;;;;;;1.00;0.00;;;;;;;;5098058;27;61872;-76
2022/05/25 10:55:52;;;;;;;;;0.00;0.00;;;;;;;;5122039;27;61830;-77
2022/05/25 10:58:40;;;;;;;;;0.00;0.00;;;;;;;;5121878;27;62040;-76
2022/05/25 11:01:15;;;;;;;;;0.00;0.00;;;;;;;;5122253;27;61990;-76
2022/05/25 11:03:49;;;;;;;;;1.00;0.00;;;;;;;;5120475;27;61806;-73
2022/05/25 11:06:23;;;;;;;;;0.00;0.00;;;;;;;;5122305;27;61804;-76
2022/05/25 11:09:11;;;;;;;;;0.00;0.00;;;;;;;;5122703;27;61961;-78
2022/05/25 11:11:50;;;;;;;;;0.75;0.00;;;;;;;;5121451;27;61970;-77
2022/05/25 11:14:32;;;;;;;;;0.00;0.00;;;;;;;;5122234;27;61743;-76
2022/05/25 11:16:59;;;;;;;;;0.00;0.00;;;;;;;;5121892;27;61748;-77
2022/05/25 11:19:25;;;;;;;;;0.00;0.00;;;;;;;;5120711;27;64168;-76
2022/05/25 11:21:50;;;;;;;;;0.00;0.00;;;;;;;;5122381;27;61937;-77
2022/05/25 11:24:34;;;;;;;;;0.00;0.00;;;;;;;;5120741;27;61902;-77
2022/05/25 11:27:02;;;;;;;;;1.00;0.00;;;;;;;;5122909;27;61827;-76
2022/05/25 11:29:39;;;;;;;;;0.00;0.00;;;;;;;;5118290;27;62349;-76
2022/05/25 11:32:04;;;;;;;;;0.00;0.00;;;;;;;;5121920;27;61812;-77
2022/05/25 11:34:45;;;;;;;;;0.00;0.00;;;;;;;;5116893;27;62311;-77
2022/05/25 11:37:19;;;;;;;;;0.25;0.00;;;;;;;;5101765;27;61959;-77
2022/05/25 11:40:04;;;;;;;;;0.00;0.00;;;;;;;;5100984;27;61824;-76
2022/05/25 11:42:35;;;;;;;;;0.00;0.00;;;;;;;;5119962;27;61891;-77
2022/05/25 11:45:09;;;;;;;;;0.00;0.00;;;;;;;;5122354;27;61748;-78
2022/05/25 11:47:38;;;;;;;;;0.00;0.00;;;;;;;;5122684;27;62247;-77
2022/05/25 11:50:13;;;;;;;;;0.00;0.00;;;;;;;;5120215;27;63392;-77
2022/05/25 11:52:45;;;;;;;;;0.00;0.00;;;;;;;;5121811;27;61692;-77
2022/05/25 11:55:16;;;;;;;;;0.00;0.00;;;;;;;;5120377;27;61818;-77
2022/05/25 11:57:44;;;;;;;;;0.00;0.00;;;;;;;;5122125;27;62295;-77
2022/05/25 12:00:15;;;;;;;;;1.00;0.00;;;;;;;;5122012;27;61837;-77
2022/05/25 12:02:43;;;;;;;;;0.00;0.00;;;;;;;;5122358;27;61679;-82
2022/05/25 12:05:08;;;;;;;;;0.00;0.00;;;;;;;;5120953;27;62094;-77
2022/05/25 12:07:52;;;;;;;;;0.00;0.00;;;;;;;;5122094;27;61862;-75
2022/05/25 12:10:30;;;;;;;;;2.00;0.00;;;;;;;;5121209;27;62065;-77
2022/05/25 12:13:01;;;;;;;;;0.00;0.00;;;;;;;;5122081;27;61896;-78
2022/05/25 12:15:38;;;;;;;;;0.00;0.00;;;;;;;;5122707;27;61789;-75
2022/05/25 12:18:22;;;;;;;;;1.00;1.00;;;;;;;;5100312;27;61826;-75
2022/05/25 12:20:54;;;;;;;;;1.67;0.00;;;;;;;;5110321;27;61849;-75
2022/05/25 12:23:23;;;;;;;;;0.67;0.00;;;;;;;;5118982;27;61878;-76
2022/05/25 12:25:51;;;;;;;;;0.00;0.00;;;;;;;;5120737;27;61790;-78
2022/05/25 12:28:16;;;;;;;;;0.00;0.00;;;;;;;;5122299;27;61959;-75
2022/05/25 12:30:44;;;;;;;;;0.00;0.00;;;;;;;;5119956;27;63681;-76
2022/05/25 12:33:11;;;;;;;;;0.00;0.00;;;;;;;;5122168;27;61972;-76
2022/05/25 12:35:37;;;;;;;;;0.00;0.00;;;;;;;;5123511;27;61964;-76
2022/05/25 12:38:07;;;;;;;;;1.00;0.00;;;;;;;;5122838;27;61807;-76
2022/05/25 12:40:41;;;;;;;;;0.00;0.00;;;;;;;;5124430;27;61881;-78
2022/05/25 12:43:26;;;;;;;;;0.00;0.00;;;;;;;;5125782;27;61805;-76
2022/05/25 12:48:46;;;;;;;;;1.00;0.00;;;;;;;;5125541;27;62046;-76
2022/05/25 12:51:27;;;;;;;;;0.67;0.00;;;;;;;;5124929;27;63137;-76
2022/05/25 12:53:53;;;;;;;;;0.00;0.00;;;;;;;;5117668;27;61848;-76
2022/05/25 12:56:18;;;;;;;;;1.00;0.00;;;;;;;;5124241;27;62051;-76
2022/05/25 12:58:51;;;;;;;;;0.00;0.00;;;;;;;;5125369;27;61764;-76
2022/05/25 13:01:23;;;;;;;;;1.00;0.00;;;;;;;;5123092;27;63249;-75
2022/05/25 13:03:48;;;;;;;;;0.00;0.00;;;;;;;;5124839;27;61764;-76
2022/05/25 13:06:16;;;;;;;;;0.00;0.00;;;;;;;;5125525;27;61932;-76
2022/05/25 13:08:50;;;;;;;;;0.00;0.00;;;;;;;;5124507;27;62023;-75
2022/05/25 13:11:34;;;;;;;;;0.67;0.00;;;;;;;;5122174;27;62737;-76
2022/05/25 13:14:01;;;;;;;;;0.00;0.00;;;;;;;;5124880;27;61685;-76
2022/05/25 13:16:41;;;;;;;;;0.00;0.00;;;;;;;;5124779;27;61848;-76
2022/05/25 13:19:13;;;;;;;;;0.00;0.00;;;;;;;;5125331;27;62035;-75
2022/05/25 13:21:42;;;;;;;;;0.00;0.00;;;;;;;;5122727;27;63138;-76
2022/05/25 13:24:23;;;;;;;;;0.00;0.00;;;;;;;;5124863;27;61769;-75
2022/05/25 13:27:06;;;;;;;;;0.00;0.00;;;;;;;;5123400;27;61842;-76
2022/05/25 13:29:37;;;;;;;;;0.67;0.00;;;;;;;;5123790;27;61714;-76
2022/05/25 13:32:26;;;;;;;;;0.00;0.00;;;;;;;;5123758;27;61775;-75
2022/05/25 13:34:52;;;;;;;;;0.00;0.00;;;;;;;;5040289;28;61917;-76
2022/05/25 13:37:17;;;;;;;;;0.00;0.00;;;;;;;;5023686;28;62395;-76
2022/05/25 13:39:42;;;;;;;;;0.00;0.00;;;;;;;;5023538;28;62219;-76
2022/05/25 13:42:10;;;;;;;;;0.67;0.00;;;;;;;;5039918;28;62090;-77
2022/05/25 13:44:41;;;;;;;;;0.00;0.00;;;;;;;;5023239;28;61855;-77
2022/05/25 13:47:07;;;;;;;;;0.00;0.00;;;;;;;;5039691;28;61787;-78
2022/05/25 13:49:35;;;;;;;;;0.00;0.00;;;;;;;;5040959;28;62295;-78
2022/05/25 13:52:20;;;;;;;;;0.00;0.00;;;;;;;;5022750;28;63861;-77
2022/05/25 13:54:46;;;;;;;;;0.00;0.00;;;;;;;;5020303;28;62051;-78
2022/05/25 13:57:23;;;;;;;;;1.00;0.00;;;;;;;;5025250;28;61778;-77
2022/05/25 13:59:48;;;;;;;;;0.00;0.00;;;;;;;;5021177;28;61921;-77
2022/05/25 14:02:27;;;;;;;;;0.00;0.00;;;;;;;;5020808;28;65048;-77
2022/05/25 14:04:55;;;;;;;;;0.00;0.00;;;;;;;;5021720;28;61886;-77
2022/05/25 14:07:26;;;;;;;;;0.00;0.00;;;;;;;;5038100;28;61937;-77
2022/05/25 14:12:37;;;;;;;;;0.00;0.00;;;;;;;;5102218;27;62408;-77
2022/05/25 14:15:02;;;;;;;;;0.00;0.00;;;;;;;;5122369;27;61802;-83
2022/05/25 14:17:29;;;;;;;;;0.00;0.00;;;;;;;;5122042;27;62179;-75
2022/05/25 14:19:58;;;;;;;;;1.00;0.00;;;;;;;;5122623;27;61875;-76
2022/05/25 14:22:25;;;;;;;;;0.00;0.00;;;;;;;;5121406;27;61941;-76
2022/05/25 14:24:52;;;;;;;;;0.33;0.00;;;;;;;;5121952;27;61899;-76
2022/05/25 14:27:26;;;;;;;;;0.00;0.00;;;;;;;;5121896;27;62045;-76
2022/05/25 14:29:53;;;;;;;;;0.00;0.00;;;;;;;;5120806;27;61977;-76
2022/05/25 14:32:38;;;;;;;;;0.00;0.00;;;;;;;;5119843;27;63431;-76
2022/05/25 14:35:05;;;;;;;;;0.00;0.00;;;;;;;;5119470;27;61958;-76
2022/05/25 14:37:32;;;;;;;;;0.00;0.00;;;;;;;;5121449;27;61984;-76
2022/05/25 14:39:59;;;;;;;;;0.00;0.00;;;;;;;;5121315;27;61976;-76
2022/05/25 14:42:28;;;;;;;;;0.00;0.00;;;;;;;;5121143;27;61754;-76
2022/05/25 14:44:57;;;;;;;;;0.00;0.00;;;;;;;;5121954;27;61895;-74
2022/05/25 14:47:32;;;;;;;;;0.00;0.00;;;;;;;;5120012;27;62140;-74
2022/05/25 14:50:09;;;;;;;;;0.00;0.00;;;;;;;;5120627;27;61906;-74
2022/05/25 14:52:38;;;;;;;;;0.00;0.00;;;;;;;;5117547;27;62183;-73
2022/05/25 14:55:08;;;;;;;;;0.00;0.00;;;;;;;;5120393;27;61941;-74
2022/05/25 14:57:34;;;;;;;;;0.00;0.00;;;;;;;;5119329;27;61726;-74
2022/05/25 15:00:00;;;;;;;;;0.00;0.00;;;;;;;;5121895;27;61865;-73
2022/05/25 15:02:33;;;;;;;;;0.00;0.00;;;;;;;;5120981;27;61871;-73
2022/05/25 15:04:59;;;;;;;;;0.00;0.00;;;;;;;;5122671;27;61763;-73
2022/05/25 15:07:26;;;;;;;;;0.00;0.00;;;;;;;;5122626;27;61680;-74
2022/05/25 15:09:51;;;;;;;;;0.00;0.00;;;;;;;;5123126;27;61977;-73
2022/05/25 15:12:18;;;;;;;;;0.00;0.00;;;;;;;;5122050;27;62542;-73
2022/05/25 15:20:42;;;;;;;;;0.00;0.00;;;;;;;;5123003;27;61978;-74
2022/05/25 15:23:16;;;;;;;;;0.00;0.00;;;;;;;;5122296;27;61839;-76
2022/05/25 15:25:41;;;;;;;;;0.33;0.00;;;;;;;;5122461;27;61942;-75
2022/05/25 15:28:10;;;;;;;;;0.00;0.00;;;;;;;;5121547;27;61996;-75